Austin, Colorado
Current Conditions -  °F | °C
As of 9:55 PM on Thursday 30 Oct 2014 (Local Time) from KAJZ Reporting Station
Clear Clear  
Wind Chill: 44°   Ceiling: Unl
Heat Index: 47°   Visibility: 10mi
Dew Point: 24°   Wind: 6mph
Humidity: 41%   Direction: 60°ENE
Pressure: 30.28"   Gusts: NA
Location:  38.78°N, 107.95°W
Report Text: KAJZ 310355Z AUTO 06005KT 10SM CLR 08/M04 A3028 RMK AO2 T00821043
Loading
Personal Weather Stations






























Interactive Weather Map
Tropical Storm Tracking
New forecast layout! Learn more

10-Day Weather Forecast

Advertisements
Track Severe Weather on mobile